Time;durP1;ratioP1;P1;durP2;ratioP2;P2;SDS_P1;SDS_P2;PMS_P1;PMS_P2;Temp;Humidity;BMP_temperature;BMP_pressure;BME280_temperature;BME280_humidity;BME280_pressure;Samples;Min_cycle;Max_cycle;Signal;HPM_P1;HPM_P2
2023/03/22 00:00:53;;;;;;;1.40;1.30;;;8.90;99.90;;;8.40;100.00;97076.38;5025984;28;20037;-39
2023/03/22 00:03:20;;;;;;;1.98;1.25;;;8.90;99.90;;;8.37;100.00;97077.31;5029964;28;20520;-40
2023/03/22 00:05:46;;;;;;;2.83;1.70;;;8.90;99.90;;;8.37;100.00;97076.47;5031376;28;20045;-39
2023/03/22 00:08:12;;;;;;;5.25;1.35;;;8.90;99.90;;;8.39;100.00;97069.38;5035403;28;20033;-39
2023/03/22 00:10:38;;;;;;;2.60;1.48;;;8.90;99.90;;;8.44;100.00;97072.75;5028217;28;20060;-39
2023/03/22 00:13:07;;;;;;;3.03;1.55;;;9.00;99.90;;;8.46;100.00;97075.34;5017802;28;20033;-39
2023/03/22 00:15:33;;;;;;;3.75;1.58;;;9.00;99.90;;;8.46;100.00;97065.69;5026799;28;20040;-39
2023/03/22 00:17:58;;;;;;;6.90;1.50;;;9.00;99.90;;;8.51;100.00;97066.38;5032743;28;20033;-39
2023/03/22 00:20:29;;;;;;;2.05;1.42;;;9.00;99.90;;;8.55;100.00;97069.75;5035250;28;20657;-39
2023/03/22 00:22:56;;;;;;;1.80;1.55;;;9.00;99.90;;;8.57;100.00;97066.16;5035473;28;20037;-39
2023/03/22 00:25:22;;;;;;;3.03;1.67;;;9.10;99.90;;;8.61;100.00;97066.91;5025836;28;20033;-39
2023/03/22 00:27:48;;;;;;;2.28;1.58;;;9.10;99.90;;;8.63;100.00;97061.59;5025678;28;20385;-39
2023/03/22 00:30:14;;;;;;;1.88;1.35;;;9.10;99.90;;;8.65;100.00;97065.91;5031197;28;20098;-39
2023/03/22 00:32:41;;;;;;;2.90;1.67;;;9.10;99.90;;;8.65;100.00;97065.03;5027076;28;20525;-39
2023/03/22 00:35:08;;;;;;;2.65;1.50;;;9.10;99.90;;;8.61;100.00;97064.28;5028388;28;20059;-39
2023/03/22 00:37:37;;;;;;;2.53;1.55;;;9.10;99.90;;;8.55;100.00;97065.34;5026683;28;20066;-39
2023/03/22 00:40:09;;;;;;;1.95;1.45;;;9.00;99.90;;;8.48;100.00;97066.47;5026220;28;20734;-39
2023/03/22 00:42:40;;;;;;;3.72;1.80;;;8.90;99.90;;;8.39;100.00;97054.47;5009887;28;20068;-39
2023/03/22 00:45:09;;;;;;;2.80;1.70;;;9.00;99.90;;;8.47;100.00;97067.41;5030426;28;20167;-39
2023/03/22 00:47:35;;;;;;;2.03;1.70;;;9.00;99.90;;;8.52;100.00;97064.59;5035084;28;20041;-39
2023/03/22 00:50:01;;;;;;;2.78;1.50;;;9.00;99.90;;;8.60;100.00;97057.31;5030122;28;20123;-39
2023/03/22 00:52:27;;;;;;;2.67;1.70;;;9.10;99.90;;;8.65;100.00;97052.78;5031517;28;20037;-39
2023/03/22 00:54:54;;;;;;;2.78;1.70;;;9.20;99.90;;;8.65;100.00;97044.88;5024643;28;20044;-39
2023/03/22 00:57:20;;;;;;;3.72;1.80;;;9.20;99.90;;;8.77;100.00;97043.59;5026280;28;20037;-40
2023/03/22 00:59:45;;;;;;;2.35;1.70;;;9.20;99.90;;;8.80;100.00;97048.75;5031110;28;20021;-39
2023/03/22 01:02:14;;;;;;;2.55;1.75;;;9.30;99.90;;;8.85;100.00;97040.69;5034187;28;20036;-39
2023/03/22 01:04:45;;;;;;;4.18;1.70;;;9.30;99.90;;;8.91;100.00;97043.09;5034642;28;20029;-39
2023/03/22 01:07:16;;;;;;;2.63;1.80;;;9.40;99.90;;;8.95;100.00;97036.81;5038768;28;20056;-40
2023/03/22 01:09:44;;;;;;;2.33;1.67;;;9.40;99.90;;;8.96;100.00;97042.00;5024480;28;20025;-39
2023/03/22 01:12:10;;;;;;;2.17;1.55;;;9.40;99.90;;;8.92;100.00;97031.69;5029527;28;20638;-39
2023/03/22 01:14:35;;;;;;;3.38;1.73;;;9.40;99.90;;;8.84;100.00;97028.44;5034895;28;20035;-39
2023/03/22 01:17:01;;;;;;;2.90;1.63;;;9.30;99.90;;;8.71;100.00;97028.03;5038559;28;20456;-39
2023/03/22 01:19:27;;;;;;;2.72;1.80;;;9.20;99.90;;;8.60;100.00;97031.03;5042510;28;20157;-39
2023/03/22 01:21:54;;;;;;;2.53;1.75;;;9.10;99.90;;;8.48;100.00;97027.06;5036304;28;20061;-39
2023/03/22 01:24:20;;;;;;;3.03;1.70;;;9.00;99.90;;;8.36;100.00;97015.19;5034288;28;20028;-39
2023/03/22 01:26:45;;;;;;;5.20;1.77;;;8.90;99.90;;;8.23;100.00;97013.88;5032798;28;20033;-39
2023/03/22 01:29:11;;;;;;;3.30;1.70;;;8.70;99.90;;;8.10;100.00;97010.78;5031297;28;20094;-39
2023/03/22 01:31:37;;;;;;;3.78;1.90;;;8.60;99.90;;;8.01;100.00;97008.47;5038507;28;20033;-39
2023/03/22 01:34:03;;;;;;;2.17;1.65;;;8.50;99.90;;;7.94;100.00;97012.22;5035501;28;20036;-39
2023/03/22 01:36:29;;;;;;;2.60;1.90;;;8.40;99.90;;;7.84;100.00;97002.00;5039676;28;20289;-39
2023/03/22 01:38:55;;;;;;;3.38;1.95;;;8.40;99.90;;;7.69;100.00;96981.50;5030907;28;20060;-39
2023/03/22 01:41:21;;;;;;;1.98;1.60;;;8.30;99.90;;;7.65;100.00;96990.38;5034737;28;20033;-39
2023/03/22 01:44:12;;;;;;;4.03;1.98;;;8.10;99.90;;;7.55;100.00;97000.28;5036614;28;20059;-39
2023/03/22 01:46:39;;;;;;;2.40;1.70;;;8.00;99.90;;;7.45;100.00;97002.38;5032225;28;20037;-39
2023/03/22 01:49:12;;;;;;;3.17;1.85;;;8.00;99.90;;;7.33;100.00;96992.25;5034512;28;20055;-39
2023/03/22 01:51:39;;;;;;;2.40;1.90;;;7.90;99.90;;;7.31;100.00;97003.69;5019812;28;20044;-39
2023/03/22 01:54:12;;;;;;;3.47;2.20;;;7.80;99.90;;;7.23;100.00;96993.41;5032238;28;20061;-39
2023/03/22 01:56:40;;;;;;;3.22;1.85;;;7.70;99.90;;;7.17;100.00;96998.84;5013953;28;20025;-39
2023/03/22 01:59:10;;;;;;;3.35;1.90;;;7.70;99.90;;;7.16;100.00;97007.63;5013865;28;20033;-39
2023/03/22 02:01:36;;;;;;;2.97;1.88;;;7.70;99.90;;;7.13;100.00;97002.47;5015495;28;20601;-39
2023/03/22 02:04:19;;;;;;;2.42;2.00;;;7.70;99.90;;;7.12;100.00;96988.50;5011391;23;20037;-37
2023/03/22 02:06:46;;;;;;;2.90;2.00;;;7.70;99.90;;;7.14;100.00;96991.06;5012125;28;20492;-37
2023/03/22 02:09:16;;;;;;;3.17;2.22;;;7.70;99.90;;;7.13;100.00;96992.00;5008202;28;20033;-36
2023/03/22 02:12:07;;;;;;;3.17;1.90;;;7.60;99.90;;;7.09;100.00;96983.34;5012620;28;20505;-37
2023/03/22 02:14:59;;;;;;;3.35;2.08;;;7.60;99.90;;;7.08;100.00;96987.72;5007869;28;20040;-37
2023/03/22 02:17:50;;;;;;;4.43;1.83;;;7.60;99.90;;;7.06;100.00;96984.28;5005215;28;20245;-37
2023/03/22 02:21:00;;;;;;;2.38;1.73;;;7.60;99.90;;;7.07;100.00;96983.41;4993423;28;20060;-37
2023/03/22 02:23:59;;;;;;;3.28;1.77;;;7.60;99.90;;;7.07;100.00;96980.78;5010181;28;20241;-37
2023/03/22 02:26:40;;;;;;;2.25;1.50;;;7.60;99.90;;;7.08;100.00;96974.63;4993174;28;20041;-37
2023/03/22 02:29:13;;;;;;;2.03;1.55;;;7.60;99.90;;;7.07;100.00;96970.28;5010824;28;20036;-37
2023/03/22 02:32:45;;;;;;;3.92;1.40;;;7.60;99.90;;;7.01;100.00;96970.47;5012221;28;20037;-37
2023/03/22 02:35:24;;;;;;;1.98;1.70;;;7.60;99.90;;;6.98;100.00;96965.31;4933969;28;21881;-37
2023/03/22 02:38:25;;;;;;;2.97;1.48;;;7.50;99.90;;;6.94;100.00;96961.06;4920444;28;20051;-37
2023/03/22 02:41:15;;;;;;;2.30;1.55;;;7.50;99.90;;;6.90;100.00;96967.31;5004084;28;20041;-37
2023/03/22 02:44:26;;;;;;;2.17;1.80;;;7.40;99.90;;;6.85;100.00;96964.81;4998604;28;20030;-37
2023/03/22 02:47:09;;;;;;;2.90;1.60;;;7.50;99.90;;;6.88;100.00;96969.09;5009791;28;20029;-37
2023/03/22 02:50:08;;;;;;;2.05;1.67;;;7.40;99.90;;;6.84;100.00;96968.34;5011729;28;20025;-37
2023/03/22 02:52:51;;;;;;;2.10;1.83;;;7.40;99.90;;;6.82;100.00;96969.28;4997185;28;20029;-37
2023/03/22 02:55:27;;;;;;;2.65;1.75;;;7.40;99.90;;;6.81;100.00;96963.19;4992888;28;20041;-37
2023/03/22 02:58:10;;;;;;;3.45;1.98;;;7.40;99.90;;;6.81;100.00;96968.41;4995306;28;20025;-37
2023/03/22 03:00:37;;;;;;;2.67;1.92;;;7.40;99.90;;;6.82;100.00;96953.53;5010793;28;20033;-37
2023/03/22 03:03:10;;;;;;;3.83;2.00;;;7.40;99.90;;;6.82;100.00;96962.28;5008288;28;20382;-37
2023/03/22 03:05:41;;;;;;;2.58;1.75;;;7.40;99.90;;;6.86;100.00;96968.31;4997622;28;20509;-37
2023/03/22 03:08:09;;;;;;;2.90;1.80;;;7.40;99.90;;;6.87;100.00;96959.50;4993488;28;21026;-37
2023/03/22 03:10:39;;;;;;;2.55;1.80;;;7.50;99.90;;;6.92;100.00;96965.47;5005667;28;20041;-37
2023/03/22 03:13:05;;;;;;;2.25;1.50;;;7.50;99.90;;;6.93;100.00;96972.47;5008491;28;20116;-36
2023/03/22 03:15:30;;;;;;;3.10;1.70;;;7.50;99.90;;;6.92;100.00;96968.09;5012893;28;20428;-37
2023/03/22 03:18:40;;;;;;;2.45;1.70;;;7.50;99.90;;;6.91;100.00;96969.03;5008653;28;20670;-37
2023/03/22 03:21:35;;;;;;;2.78;1.75;;;7.50;99.90;;;6.91;100.00;96962.91;5009379;28;20025;-37
2023/03/22 03:24:17;;;;;;;4.38;1.90;;;7.50;99.90;;;6.95;100.00;96970.66;4988362;28;20040;-37
2023/03/22 03:27:31;;;;;;;4.05;1.98;;;7.50;99.90;;;6.99;100.00;96979.28;4989346;28;20357;-37
2023/03/22 03:30:13;;;;;;;2.83;1.88;;;7.50;99.90;;;6.95;100.00;96959.31;4994473;28;20044;-37
2023/03/22 03:33:08;;;;;;;4.15;2.13;;;7.50;99.90;;;7.01;100.00;96973.06;5007508;28;20060;-37
2023/03/22 03:35:45;;;;;;;3.20;1.75;;;7.60;99.90;;;7.05;100.00;96969.47;4988443;28;20041;-37
2023/03/22 03:38:21;;;;;;;3.55;2.08;;;7.60;99.90;;;7.08;100.00;96964.13;5010415;28;20021;-37
2023/03/22 03:40:53;;;;;;;1.95;1.60;;;7.60;99.90;;;7.10;100.00;96963.22;5005212;28;20052;-37
2023/03/22 03:43:20;;;;;;;2.92;1.75;;;7.60;99.90;;;7.11;100.00;96970.22;4990419;28;20032;-37
2023/03/22 03:45:46;;;;;;;2.70;1.88;;;7.60;99.90;;;7.05;100.00;96964.25;5009263;28;20033;-37
2023/03/22 03:48:21;;;;;;;4.95;2.28;;;7.60;99.90;;;7.08;100.00;96974.63;5009510;28;20080;-37
2023/03/22 03:50:51;;;;;;;4.40;2.00;;;7.60;99.90;;;7.07;100.00;96970.28;5006725;28;20217;-37
2023/03/22 03:53:17;;;;;;;3.17;2.08;;;7.60;99.90;;;7.11;100.00;96975.44;5008079;28;20235;-37
2023/03/22 03:55:42;;;;;;;2.83;1.60;;;7.60;99.90;;;7.10;100.00;96976.34;5008206;28;20030;-37
2023/03/22 03:58:08;;;;;;;3.65;2.30;;;7.60;99.90;;;7.05;100.00;96965.97;5009558;28;20028;-37
2023/03/22 04:00:35;;;;;;;2.90;2.03;;;7.60;99.90;;;7.04;100.00;96978.25;5007895;28;20044;-37
2023/03/22 04:03:02;;;;;;;2.25;1.75;;;7.60;99.90;;;7.00;100.00;96971.38;5012619;28;20064;-37
2023/03/22 04:05:28;;;;;;;2.95;2.00;;;7.50;99.90;;;6.98;100.00;96977.56;4990437;28;20037;-37
2023/03/22 04:07:54;;;;;;;3.15;2.10;;;7.50;99.90;;;6.97;100.00;96978.47;5008099;28;21305;-37
2023/03/22 04:10:19;;;;;;;3.42;1.80;;;7.50;99.90;;;6.92;100.00;96973.34;5004921;28;20029;-37
2023/03/22 04:12:45;;;;;;;2.92;1.98;;;7.50;99.90;;;6.88;100.00;96976.97;5000311;28;20041;-37
2023/03/22 04:15:11;;;;;;;3.60;2.08;;;7.50;99.90;;;6.85;100.00;96979.69;5005733;28;20029;-37
2023/03/22 04:17:38;;;;;;;3.17;2.10;;;7.40;99.90;;;6.87;100.00;96980.50;5009685;28;20076;-37
2023/03/22 04:20:08;;;;;;;4.70;2.20;;;7.40;99.90;;;6.86;100.00;96970.91;5004507;28;20564;-37
2023/03/22 04:22:37;;;;;;;2.78;1.90;;;7.40;99.90;;;6.83;100.00;96974.47;5003374;28;20477;-37
2023/03/22 04:25:04;;;;;;;3.00;2.10;;;7.40;99.90;;;6.80;100.00;96976.31;5001942;28;20108;-37
2023/03/22 04:27:30;;;;;;;4.85;2.35;;;7.40;99.90;;;6.78;100.00;96970.28;5000241;28;20056;-37
2023/03/22 04:29:56;;;;;;;3.85;2.03;;;7.40;99.90;;;6.69;100.00;96956.53;5001191;28;20473;-37
2023/03/22 04:32:22;;;;;;;2.65;1.85;;;7.30;99.90;;;6.73;100.00;96965.19;5010458;28;20029;-37
2023/03/22 04:34:50;;;;;;;4.03;1.92;;;7.30;99.90;;;6.68;100.00;96956.59;5004943;28;20122;-37
2023/03/22 04:37:16;;;;;;;4.30;2.17;;;7.30;99.90;;;6.66;100.00;96963.63;4999026;28;20417;-37
2023/03/22 04:39:43;;;;;;;5.95;2.20;;;7.20;99.90;;;6.62;100.00;96952.38;5011601;28;20470;-37
2023/03/22 04:42:09;;;;;;;2.17;1.92;;;7.20;99.90;;;6.65;100.00;96960.13;4989572;28;20961;-37
2023/03/22 04:44:35;;;;;;;2.95;1.90;;;7.20;99.90;;;6.64;100.00;96955.81;5012092;28;20037;-37
2023/03/22 04:47:00;;;;;;;2.53;1.90;;;7.20;99.90;;;6.57;100.00;96949.03;5010168;28;20034;-37
2023/03/22 04:49:26;;;;;;;3.85;2.00;;;7.20;99.90;;;6.55;100.00;96940.34;5021161;28;20186;-37
2023/03/22 04:51:56;;;;;;;2.92;2.05;;;7.20;99.90;;;6.54;100.00;96949.09;5012630;28;20044;-37
2023/03/22 04:54:23;;;;;;;3.40;2.13;;;7.10;99.90;;;6.49;100.00;96940.50;5011722;28;20034;-37
2023/03/22 04:56:49;;;;;;;2.65;1.92;;;7.10;99.90;;;6.48;100.00;96942.28;4985297;28;20073;-37
2023/03/22 04:59:18;;;;;;;6.13;2.00;;;7.00;99.90;;;6.42;100.00;96928.50;5008614;28;20037;-37
2023/03/22 05:01:48;;;;;;;3.63;1.88;;;7.00;99.90;;;6.35;100.00;96927.78;5011165;28;20268;-37
2023/03/22 05:04:15;;;;;;;2.63;1.80;;;7.00;99.90;;;6.37;100.00;96927.75;5011555;28;20025;-37
2023/03/22 05:06:41;;;;;;;3.33;1.90;;;6.90;99.90;;;6.36;100.00;96931.28;4994936;28;20547;-37
2023/03/22 05:09:07;;;;;;;3.45;1.85;;;6.90;99.90;;;6.38;100.00;96929.47;5012189;28;20785;-37
2023/03/22 05:11:32;;;;;;;3.42;1.88;;;6.90;99.90;;;6.36;100.00;96924.28;5011941;28;20033;-37
2023/03/22 05:13:58;;;;;;;2.55;1.85;;;7.00;99.90;;;6.17;100.00;96896.88;5014583;28;20474;-37
2023/03/22 05:16:24;;;;;;;4.03;2.10;;;6.90;99.90;;;6.29;100.00;96914.88;4994309;28;20034;-37
2023/03/22 05:18:53;;;;;;;3.17;2.05;;;6.90;99.90;;;6.38;100.00;96934.72;5010403;28;20094;-37
2023/03/22 05:21:26;;;;;;;4.53;2.00;;;6.90;99.90;;;6.37;100.00;96931.25;5012492;28;20025;-37
2023/03/22 05:23:55;;;;;;;3.95;1.92;;;6.90;99.90;;;6.34;100.00;96935.72;5006044;28;20095;-37
2023/03/22 05:26:23;;;;;;;3.42;2.03;;;6.90;99.90;;;6.33;100.00;96931.38;5008964;28;20029;-37
2023/03/22 05:28:50;;;;;;;6.15;2.08;;;6.90;99.90;;;6.30;100.00;96933.19;5012124;28;20033;-37
2023/03/22 05:31:16;;;;;;;2.97;1.92;;;6.90;99.90;;;6.33;100.00;96932.22;5012032;28;20033;-37
2023/03/22 05:33:45;;;;;;;4.68;2.10;;;6.90;99.90;;;6.34;100.00;96933.09;5007424;28;20025;-37
2023/03/22 05:36:11;;;;;;;3.30;2.13;;;6.90;99.90;;;6.32;100.00;96930.53;5006888;28;20168;-37
2023/03/22 05:38:37;;;;;;;3.85;2.20;;;6.90;99.90;;;6.19;100.00;96906.44;5009511;28;20076;-37
2023/03/22 05:41:02;;;;;;;3.65;1.98;;;6.90;99.90;;;6.37;100.00;96927.75;5004824;28;20029;-37
2023/03/22 05:43:28;;;;;;;3.28;2.25;;;6.90;99.90;;;6.43;100.00;96927.59;5015274;28;20033;-37
2023/03/22 05:45:54;;;;;;;2.88;1.75;;;7.00;99.90;;;6.43;100.00;96922.38;5009399;28;20296;-37
2023/03/22 05:48:20;;;;;;;3.03;2.00;;;7.00;99.90;;;6.47;100.00;96932.69;5008080;28;20500;-37
2023/03/22 05:50:45;;;;;;;5.43;2.05;;;7.00;99.90;;;6.51;100.00;96941.31;5016301;28;20390;-37
2023/03/22 05:53:11;;;;;;;3.08;2.00;;;7.10;99.90;;;6.56;100.00;96935.97;5008448;28;20057;-37
2023/03/22 05:55:37;;;;;;;3.83;1.90;;;7.10;99.90;;;6.59;100.00;96934.13;5008817;28;20195;-37
2023/03/22 05:58:03;;;;;;;3.13;1.80;;;7.20;99.90;;;6.56;100.00;96922.88;5009858;28;20156;-37
2023/03/22 06:00:34;;;;;;;2.90;2.10;;;7.20;99.90;;;6.64;100.00;96931.34;5007366;28;20094;-37
2023/03/22 06:03:02;;;;;;;4.50;2.20;;;7.20;99.90;;;6.68;100.00;96943.47;5010362;28;20041;-37
2023/03/22 06:05:30;;;;;;;4.63;2.45;;;7.20;99.90;;;6.65;100.00;96933.94;5010669;28;20171;-37
2023/03/22 06:07:57;;;;;;;3.47;2.30;;;7.30;99.90;;;6.74;100.00;96943.28;5009672;28;20032;-37
2023/03/22 06:10:25;;;;;;;5.18;1.98;;;7.30;99.90;;;6.78;100.00;96944.91;5013986;28;20044;-37
2023/03/22 06:12:52;;;;;;;5.55;2.25;;;7.30;99.90;;;6.84;100.00;96943.91;5010083;28;20033;-37
2023/03/22 06:15:17;;;;;;;4.45;2.20;;;7.40;99.90;;;6.88;100.00;96946.38;5012080;28;20041;-37
2023/03/22 06:17:43;;;;;;;2.42;1.73;;;7.40;99.90;;;6.93;100.00;96941.00;5016070;28;20045;-37
2023/03/22 06:20:13;;;;;;;3.15;2.30;;;7.50;99.90;;;6.99;100.00;96953.06;5014166;28;20033;-37
2023/03/22 06:22:39;;;;;;;3.20;1.83;;;7.50;99.90;;;7.07;100.00;96956.31;4993438;28;20091;-36
2023/03/22 06:25:07;;;;;;;4.78;2.08;;;7.60;99.90;;;7.13;100.00;96955.28;5008981;28;20441;-37
2023/03/22 06:27:33;;;;;;;3.17;1.70;;;7.70;99.90;;;7.18;100.00;96953.38;5005796;28;20025;-37
2023/03/22 06:29:59;;;;;;;2.50;1.60;;;7.70;99.90;;;7.26;100.00;96960.09;5014188;28;20102;-37
2023/03/22 06:32:25;;;;;;;6.78;1.67;;;7.80;99.90;;;7.35;100.00;96961.56;5013109;28;20025;-37
2023/03/22 06:34:55;;;;;;;4.53;2.00;;;7.90;99.90;;;7.41;100.00;96966.63;5014402;28;20079;-37
2023/03/22 06:37:21;;;;;;;2.78;1.90;;;8.00;99.90;;;7.45;100.00;96955.13;5012743;28;20033;-37
2023/03/22 06:39:47;;;;;;;4.38;1.83;;;8.10;99.90;;;7.47;100.00;96941.97;5016838;28;20040;-37
2023/03/22 06:42:13;;;;;;;4.93;1.77;;;8.10;99.90;;;7.67;100.00;96964.09;5012014;28;20029;-37
2023/03/22 06:44:42;;;;;;;5.38;2.13;;;8.20;99.90;;;7.75;100.00;96968.19;5014540;28;20485;-37
2023/03/22 06:47:08;;;;;;;5.05;2.33;;;8.30;99.90;;;7.82;100.00;96968.81;5015980;28;20497;-37
2023/03/22 06:49:34;;;;;;;5.32;2.13;;;8.40;99.90;;;7.94;100.00;96968.44;4999492;28;20145;-37
2023/03/22 06:52:00;;;;;;;4.05;2.17;;;8.50;99.90;;;8.00;100.00;96972.59;5012945;28;20029;-37
2023/03/22 06:54:26;;;;;;;4.18;1.88;;;8.60;99.90;;;8.08;100.00;96967.97;5006957;28;20259;-37
2023/03/22 06:56:51;;;;;;;3.83;1.85;;;8.70;99.90;;;8.14;100.00;96970.38;5014363;28;20473;-37
2023/03/22 06:59:17;;;;;;;2.10;1.50;;;8.70;99.90;;;8.23;100.00;96975.31;4997855;28;20033;-37
2023/03/22 07:01:43;;;;;;;6.28;1.98;;;8.80;99.90;;;8.29;100.00;96965.50;5009941;28;20026;-37
2023/03/22 07:04:09;;;;;;;5.53;2.05;;;8.90;99.90;;;8.36;100.00;96967.88;4989581;28;20557;-37
2023/03/22 07:06:34;;;;;;;3.55;1.73;;;8.90;99.90;;;8.45;100.00;96974.59;5009826;28;20397;-37
2023/03/22 07:09:01;;;;;;;2.38;1.45;;;9.00;99.90;;;8.48;100.00;96958.72;5003219;28;20480;-37
2023/03/22 07:11:26;;;;;;;2.97;1.55;;;9.10;99.90;;;8.47;100.00;96943.88;5001157;28;20504;-36
2023/03/22 07:13:53;;;;;;;3.60;1.88;;;9.20;99.90;;;8.72;100.00;96961.38;5011510;28;20030;-37
2023/03/22 07:16:19;;;;;;;3.13;1.70;;;9.30;99.90;;;8.85;100.00;96967.06;5008248;28;20035;-37
2023/03/22 07:18:47;;;;;;;4.20;2.03;;;9.40;99.90;;;8.95;100.00;96978.94;5011932;28;20033;-37
2023/03/22 07:21:13;;;;;;;3.63;1.50;;;9.50;99.90;;;9.04;100.00;96972.50;5012288;28;20033;-37
2023/03/22 07:23:38;;;;;;;5.65;1.80;;;9.60;99.90;;;9.02;100.00;96963.81;5015070;28;20488;-37
2023/03/22 07:26:05;;;;;;;3.08;1.73;;;9.60;99.90;;;9.15;100.00;96971.19;5008678;28;20078;-37
2023/03/22 07:28:30;;;;;;;2.95;1.45;;;9.70;99.90;;;9.23;100.00;96962.97;4984208;28;20040;-37
2023/03/22 07:31:11;;;;;;;4.22;1.60;;;9.80;99.90;;;9.32;100.00;96967.88;4998694;28;20378;-37
2023/03/22 07:33:40;;;;;;;5.40;1.80;;;9.90;99.90;;;9.39;95.51;96967.66;5004376;28;20664;-37
2023/03/22 07:36:08;;;;;;;3.53;1.52;;;9.90;99.90;;;9.48;96.41;96970.78;5005353;28;20440;-37
2023/03/22 07:38:34;;;;;;;4.40;1.83;;;10.00;99.90;;;9.62;95.34;96972.00;5013164;28;20032;-37
2023/03/22 07:41:00;;;;;;;2.35;1.30;;;10.20;99.90;;;9.71;93.15;96974.28;5003319;28;20116;-37
2023/03/22 07:43:26;;;;;;;3.13;1.52;;;10.20;99.90;;;9.79;93.56;96977.44;5008145;28;20044;-37
2023/03/22 07:45:52;;;;;;;3.53;1.67;;;10.30;99.90;;;9.85;90.41;96974.59;5006934;28;20049;-37
2023/03/22 07:48:20;;;;;;;2.35;1.48;;;10.40;99.90;;;9.97;92.02;96973.19;5008015;28;20108;-37
2023/03/22 07:50:45;;;;;;;2.97;1.50;;;10.50;99.90;;;10.02;89.52;96973.88;5001510;28;20252;-37
2023/03/22 07:53:12;;;;;;;2.17;1.30;;;10.60;99.90;;;10.12;90.99;96969.06;4991497;28;20084;-37
2023/03/22 07:55:38;;;;;;;3.70;1.40;;;10.60;99.90;;;10.24;89.41;96983.50;4999909;28;20037;-37
2023/03/22 07:58:04;;;;;;;2.58;1.30;;;10.70;99.90;;;10.32;87.81;96976.19;4995537;28;20030;-37
2023/03/22 08:00:31;;;;;;;4.50;1.30;;;10.80;99.90;;;10.42;88.38;96982.75;5002221;28;20033;-37
2023/03/22 08:02:57;;;;;;;2.63;1.45;;;10.90;99.90;;;10.49;86.86;96978.94;5008404;28;20025;-36
2023/03/22 08:05:23;;;;;;;2.60;1.17;;;11.00;99.90;;;10.61;86.62;96984.63;5051953;22;20055;-39
2023/03/22 08:07:50;;;;;;;2.63;1.42;;;11.10;99.90;;;10.71;84.18;96975.34;5041619;28;20539;-39
2023/03/22 08:10:16;;;;;;;3.72;1.38;;;11.20;99.90;;;10.65;85.22;96957.19;5043508;28;20863;-39
2023/03/22 08:12:42;;;;;;;1.80;1.00;;;11.30;99.90;;;10.85;84.97;96980.88;5038133;28;20036;-39
2023/03/22 08:15:10;;;;;;;1.65;1.10;;;11.40;99.90;;;10.94;84.20;96978.75;5019819;28;20059;-39
2023/03/22 08:17:35;;;;;;;2.28;1.20;;;11.50;99.90;;;11.07;84.70;96977.25;5015997;28;20556;-39
2023/03/22 08:20:07;;;;;;;2.60;1.20;;;11.60;99.90;;;11.19;82.93;96974.06;5016814;28;20033;-39
2023/03/22 08:22:32;;;;;;;3.05;1.20;;;11.70;99.90;;;11.33;82.24;96986.63;5023235;28;20028;-39
2023/03/22 08:24:58;;;;;;;3.47;1.45;;;11.80;99.90;;;11.46;82.56;96981.63;5016258;28;20428;-39
2023/03/22 08:27:24;;;;;;;1.40;1.00;;;11.90;99.90;;;11.58;82.63;96986.34;5021105;28;20048;-39
2023/03/22 08:29:50;;;;;;;3.47;0.95;;;12.00;99.90;;;11.68;80.62;96972.69;5013776;28;20437;-39
2023/03/22 08:32:16;;;;;;;3.35;0.95;;;12.10;99.90;;;11.82;81.73;96964.94;5014834;28;20041;-39
2023/03/22 08:34:43;;;;;;;3.05;1.20;;;12.30;99.90;;;11.91;83.52;96966.31;5016931;28;20076;-39
2023/03/22 08:37:10;;;;;;;2.35;1.20;;;12.40;99.90;;;11.97;77.47;96958.94;5015985;28;20038;-39
2023/03/22 08:39:36;;;;;;;2.22;0.98;;;12.40;99.90;;;11.96;76.66;96944.00;5015862;28;20071;-39
2023/03/22 08:42:03;;;;;;;1.13;0.85;;;12.50;99.90;;;12.15;75.53;96965.09;5018462;28;20068;-39
2023/03/22 08:44:28;;;;;;;1.60;0.80;;;12.60;99.90;;;12.21;76.18;96964.78;5011688;28;20036;-39
2023/03/22 08:46:54;;;;;;;2.05;0.80;;;12.60;99.90;;;12.19;73.52;96948.16;5012840;28;20033;-39
2023/03/22 08:49:20;;;;;;;2.08;0.70;;;12.70;99.90;;;12.36;74.66;96962.28;5014487;28;20029;-39
2023/03/22 08:51:47;;;;;;;2.75;0.82;;;12.80;99.90;;;12.43;74.07;96968.13;5017752;28;20099;-39
2023/03/22 08:54:12;;;;;;;0.70;0.70;;;12.80;99.90;;;12.49;75.04;96963.41;5016151;28;20032;-39
2023/03/22 08:56:38;;;;;;;1.50;0.82;;;12.90;99.90;;;12.62;74.75;96968.06;5021882;28;20370;-39
2023/03/22 08:59:07;;;;;;;2.75;1.02;;;13.00;99.90;;;12.63;73.32;96972.38;5021942;28;20043;-39
2023/03/22 09:01:34;;;;;;;1.52;0.90;;;13.10;99.90;;;12.70;76.42;96956.09;5017032;28;20040;-39
2023/03/22 09:04:01;;;;;;;5.95;0.90;;;13.10;99.90;;;12.77;73.37;96961.94;5015683;28;20147;-39
2023/03/22 09:06:27;;;;;;;2.78;1.00;;;13.20;99.90;;;12.86;78.10;96960.59;5016868;28;20456;-39
2023/03/22 09:08:53;;;;;;;1.40;0.80;;;13.20;99.90;;;12.87;71.00;96960.53;5018022;28;21146;-37
2023/03/22 09:11:19;;;;;;;1.55;0.80;;;13.30;99.90;;;12.89;71.44;96963.94;5014246;28;20057;-40
2023/03/22 09:13:46;;;;;;;2.63;0.82;;;13.30;99.90;;;12.85;71.71;96959.75;5018266;28;20036;-39
2023/03/22 09:16:12;;;;;;;1.92;1.20;;;13.30;99.90;;;12.95;71.93;96953.00;5025171;28;20480;-40
2023/03/22 09:18:38;;;;;;;2.03;0.90;;;13.40;99.90;;;13.06;71.28;96952.44;5021319;28;20029;-40
2023/03/22 09:21:06;;;;;;;2.17;0.88;;;13.50;99.90;;;13.14;68.81;96939.66;5025509;28;20029;-40
2023/03/22 09:23:34;;;;;;;3.72;1.25;;;13.50;99.90;;;13.18;67.37;96949.13;5022380;28;20075;-39
2023/03/22 09:26:02;;;;;;;2.30;0.98;;;13.60;99.90;;;13.27;67.23;96945.13;5021665;28;20052;-40
2023/03/22 09:28:28;;;;;;;1.30;0.90;;;13.60;99.90;;;13.30;68.73;96939.66;5024300;28;20041;-40
2023/03/22 09:30:58;;;;;;;2.35;0.90;;;13.70;99.90;;;13.39;66.75;96932.16;5023324;28;20090;-40
2023/03/22 09:33:24;;;;;;;1.65;0.90;;;13.80;99.90;;;13.49;66.41;96934.22;5019480;28;20041;-40
2023/03/22 09:35:49;;;;;;;1.30;0.90;;;13.90;99.90;;;13.55;67.32;96936.53;5018057;28;20033;-40
2023/03/22 09:38:15;;;;;;;1.27;0.93;;;14.00;99.90;;;13.61;65.53;96937.13;5020263;28;20381;-40
2023/03/22 09:41:04;;;;;;;3.25;0.90;;;14.10;99.90;;;13.67;64.92;96928.81;5012794;28;20065;-40
2023/03/22 09:43:41;;;;;;;1.40;0.60;;;14.10;99.90;;;13.71;63.99;96927.69;5020590;28;20037;-40
2023/03/22 09:46:15;;;;;;;2.20;1.05;;;14.20;99.90;;;13.88;65.25;96935.53;5018233;28;20037;-41
2023/03/22 09:48:43;;;;;;;1.50;0.73;;;14.30;99.90;;;13.87;62.23;96923.25;5021370;28;20557;-40
2023/03/22 09:51:42;;;;;;;0.98;0.75;;;14.40;99.90;;;13.94;62.13;96932.56;5018285;28;20124;-40
2023/03/22 09:54:28;;;;;;;1.48;0.60;;;14.40;99.90;;;14.23;61.85;96932.66;5019292;28;20128;-40
2023/03/22 09:57:32;;;;;;;1.48;0.73;;;14.60;99.90;;;14.41;59.92;96921.88;5039277;28;20045;-40
2023/03/22 10:00:19;;;;;;;4.93;0.63;;;14.80;99.90;;;14.56;64.33;96922.75;5017935;28;22460;-41
2023/03/22 10:03:15;;;;;;;2.88;1.02;;;15.00;99.90;;;14.65;59.28;96916.94;5005790;28;20033;-40
2023/03/22 10:06:01;;;;;;;2.60;1.05;;;15.00;99.90;;;14.77;59.24;96904.69;5011446;28;20038;-41
2023/03/22 10:08:47;;;;;;;1.63;1.00;;;15.10;99.90;;;14.83;59.98;96902.50;5025267;28;20061;-41
2023/03/22 10:11:46;;;;;;;0.98;0.80;;;15.20;99.90;;;14.82;57.45;96900.81;5021737;28;20497;-41
2023/03/22 10:14:37;;;;;;;2.67;0.70;;;15.20;99.90;;;14.80;59.04;96901.84;5019322;28;20489;-40
2023/03/22 10:17:10;;;;;;;4.95;0.90;;;15.20;99.90;;;14.62;56.95;96902.03;5018122;28;20033;-41
2023/03/22 10:19:50;;;;;;;3.22;1.00;;;15.10;99.90;;;14.58;57.39;96897.88;5023262;28;20075;-41
2023/03/22 10:22:23;;;;;;;2.28;0.90;;;15.00;99.90;;;14.49;58.76;96882.47;5027048;28;20401;-41
2023/03/22 10:24:51;;;;;;;2.03;0.90;;;14.90;99.90;;;14.54;61.62;96890.16;5025127;28;20047;-41
2023/03/22 10:27:19;;;;;;;1.52;0.80;;;14.90;99.90;;;14.68;60.59;96887.56;5023907;28;20099;-41
2023/03/22 10:29:52;;;;;;;2.70;1.33;;;15.00;99.90;;;14.70;60.25;96888.31;5020995;28;20056;-40
2023/03/22 10:32:28;;;;;;;1.52;0.90;;;15.00;99.90;;;14.74;59.13;96886.31;5019031;28;20082;-41
2023/03/22 10:34:55;;;;;;;4.75;1.02;;;15.10;99.90;;;14.74;58.78;96884.50;5017829;28;20043;-40
2023/03/22 10:37:32;;;;;;;3.55;1.08;;;15.10;99.90;;;14.95;58.51;96884.09;5020353;28;20032;-41
2023/03/22 10:40:05;;;;;;;1.98;0.98;;;15.30;99.90;;;15.15;57.22;96865.13;5017850;28;20025;-41